Accueil
METAR-TAF:

METAR-TAF

Aéroports :

Odate-Noshiro, Japon

latitude: 40-11N, longitude: 140-12E, altitude: 84 m

Observation

Le bulletin a été fait il y a 44 minutes, à 05:10 UTC
Vent 7 kt de ouest/nord-ouest, variant entre ouest et nord-ouest
Température 0°C
Humidité 80%
Pression 1025 hPa
Visibilité: 8000 m
Quelques nuages à une hauteur de 1500 ft
Nuages épars à une hauteur de 2500 ft
Nuages fragmentés à une hauteur de 3500 ft
faibles averses de neige

METAR: RJSR 260510Z 29007KT 260V320 8000 -SHSN FEW015 SCT025 BKN035 00/M03 Q1025 RMK 1CU015 3CU025 6CU035 A3029

Heure: 14:54 (05:54 UTC)


TAF: absent

Observations et prévisions météorologiques de plus de 4000 aéroports (messages METAR et TAF).

Les stations disponibles sont représentées par des disques jaunes et rouges sur la carte.

Passer la souris dessus pour voir le nom de la station.

Cliquer dessus pour voir les observations et prévisions météorologiques.

Pour changer de carte: cliquez sur les boutons verts avec une croix noire pour zoomer, sur le bouton vert avec un tiret pour effectuer un zoom arrière, ou sur les flèches vertes pour les cartes adjacentes.


METAR-TAF: